Terminal Aerodrome Forecast
Issued by NWS

Home | Current Version | Previous Version | Text Only | Print | Product List | Glossary Off
Versions: 1 2 3 4 5 6 7 8 9 10 11 12 13 14

000
FTUS42 KMHX 251126
TAFOAJ
TAF
KOAJ 251126Z 2512/2612 VRB02KT 5SM BR SKC
     FM251300 20009KT P6SM SCT040
     FM261000 VRB02KT 3SM BR SKC
      AMD LTD TO CLD VIS AND WIND=

USA.gov is the U.S. government's official web portal to all federal, state and local government web resources and services.